Time;durP1;ratioP1;P1;durP2;ratioP2;P2;SDS_P1;SDS_P2;PMS_P1;PMS_P2;Temp;Humidity;BMP_temperature;BMP_pressure;BME280_temperature;BME280_humidity;BME280_pressure;Samples;Min_cycle;Max_cycle;Signal;HPM_P1;HPM_P2
2022/11/25 00:00:24;;;;;;;6.30;2.00;;;;;;;5.15;100.00;98350.72;15314241;19;20143;-66
2022/11/25 00:05:48;;;;;;;4.55;1.80;;;;;;;5.10;100.00;98344.94;15275670;19;20369;-66
2022/11/25 00:11:17;;;;;;;6.30;1.90;;;;;;;5.00;100.00;98333.34;15270367;19;20426;-64
2022/11/25 00:16:42;;;;;;;6.20;1.73;;;;;;;4.97;100.00;98333.59;15272378;19;20018;-65
2022/11/25 00:22:07;;;;;;;9.45;2.30;;;;;;;4.88;100.00;98324.53;15274614;19;20013;-66
2022/11/25 00:27:34;;;;;;;5.53;1.77;;;;;;;4.85;100.00;98327.44;15265921;19;20014;-64
2022/11/25 00:32:59;;;;;;;5.13;1.70;;;;;;;4.84;100.00;98333.75;15269957;19;20388;-64
2022/11/25 00:38:17;;;;;;;5.05;1.67;;;;;;;4.81;100.00;98323.34;15270399;19;20025;-65
2022/11/25 00:49:22;;;;;;;4.38;1.58;;;;;;;4.70;100.00;98329.56;15271603;19;20021;-65
2022/11/25 00:54:46;;;;;;;5.47;1.90;;;;;;;4.60;100.00;98335.66;15267837;19;20479;-65
2022/11/25 01:00:15;;;;;;;11.13;2.17;;;;;;;4.56;100.00;98331.53;15265043;19;20081;-65
2022/11/25 01:05:40;;;;;;;6.70;1.90;;;;;;;4.53;100.00;98338.94;15269978;19;20010;-65
2022/11/25 01:11:08;;;;;;;7.13;1.92;;;;;;;4.45;100.00;98339.56;15266892;19;20018;-64
2022/11/25 01:16:35;;;;;;;5.28;1.90;;;;;;;4.37;100.00;98334.84;15269444;19;20013;-60
2022/11/25 01:22:06;;;;;;;8.75;2.13;;;;;;;4.32;100.00;98329.88;15268961;19;20035;-65
2022/11/25 01:27:31;;;;;;;6.53;1.93;;;;;;;4.31;100.00;98335.34;15262906;19;20021;-66
2022/11/25 01:32:58;;;;;;;6.60;1.98;;;;;;;4.28;100.00;98331.13;15265942;19;20018;-66
2022/11/25 01:38:23;;;;;;;6.00;1.90;;;;;;;4.19;100.00;98339.84;15263932;19;20098;-65
2022/11/25 01:43:48;;;;;;;6.68;1.90;;;;;;;4.14;100.00;98342.03;15265977;19;20126;-65
2022/11/25 01:49:19;;;;;;;6.60;1.88;;;;;;;4.07;100.00;98348.81;15266169;19;20097;-65
2022/11/25 01:54:48;;;;;;;6.93;2.20;;;;;;;3.96;100.00;98342.53;15263409;19;20015;-65
2022/11/25 02:00:15;;;;;;;8.88;2.30;;;;;;;3.88;100.00;98350.28;15259356;19;20020;-66
2022/11/25 02:05:50;;;;;;;5.28;1.90;;;;;;;3.78;100.00;98339.47;15268242;19;20086;-65
2022/11/25 02:11:23;;;;;;;5.85;1.88;;;;;;;3.68;100.00;98338.50;15261861;19;20375;-65
2022/11/25 02:16:48;;;;;;;8.57;2.05;;;;;;;3.63;100.00;98354.88;15264353;19;20490;-66
2022/11/25 02:22:22;;;;;;;6.40;1.90;;;;;;;3.57;100.00;98344.69;15263965;19;20022;-65
2022/11/25 02:27:53;;;;;;;9.10;2.15;;;;;;;3.53;100.00;98345.88;15262427;19;20357;-65
2022/11/25 02:33:20;;;;;;;5.55;2.00;;;;;;;3.50;100.00;98341.66;15257928;19;20541;-62
2022/11/25 02:38:49;;;;;;;8.60;2.50;;;;;;;3.48;100.00;98334.72;15262272;19;20090;-65
2022/11/25 02:44:19;;;;;;;9.32;2.67;;;;;;;3.45;100.00;98338.47;15261154;19;20018;-65
2022/11/25 02:49:44;;;;;;;8.73;2.30;;;;;;;3.44;100.00;98343.94;15273105;19;20014;-58
2022/11/25 02:55:09;;;;;;;9.20;2.38;;;;;;;3.39;100.00;98345.13;15275046;19;20542;-59
2022/11/25 03:00:37;;;;;;;9.27;2.65;;;;;;;3.37;100.00;98340.91;15275912;19;20025;-61
2022/11/25 03:06:02;;;;;;;9.85;2.40;;;;;;;3.34;100.00;98336.66;15272478;19;20014;-62
2022/11/25 03:17:14;;;;;;;11.70;2.80;;;;;;;3.29;100.00;98343.31;15275670;19;20018;-64
2022/11/25 03:22:38;;;;;;;8.82;2.72;;;;;;;3.28;100.00;98346.94;15273655;19;20025;-60
2022/11/25 03:28:04;;;;;;;9.77;2.70;;;;;;;3.25;100.00;98345.34;15275998;19;20024;-64
2022/11/25 03:33:32;;;;;;;9.93;2.60;;;;;;;3.21;100.00;98343.88;15277210;19;20015;-65
2022/11/25 03:38:57;;;;;;;10.88;2.80;;;;;;;3.20;100.00;98348.34;15268885;19;20011;-64
2022/11/25 03:44:21;;;;;;;10.48;2.80;;;;;;;3.20;100.00;98345.69;15274585;19;20379;-62
2022/11/25 03:49:49;;;;;;;10.48;2.50;;;;;;;3.15;100.00;98347.88;15274686;19;20074;-63
2022/11/25 03:55:15;;;;;;;10.18;2.90;;;;;;;3.13;100.00;98340.94;15270643;19;20630;-62
2022/11/25 04:00:41;;;;;;;7.25;2.80;;;;;;;3.14;100.00;98356.81;15267665;19;20479;-62
2022/11/25 04:06:08;;;;;;;8.48;2.72;;;;;;;3.16;100.00;98354.03;15272013;19;20488;-59
2022/11/25 04:17:23;;;;;;;12.07;2.75;;;;;;;3.17;100.00;98350.41;15269805;19;20102;-63
2022/11/25 04:22:50;;;;;;;9.23;2.60;;;;;;;3.14;100.00;98358.59;15270311;19;20031;-62
2022/11/25 04:28:17;;;;;;;11.88;2.83;;;;;;;3.14;100.00;98353.28;15270972;19;20022;-62
2022/11/25 04:33:41;;;;;;;10.50;3.05;;;;;;;3.09;100.00;98353.63;15271173;19;20411;-62
2022/11/25 04:39:12;;;;;;;11.40;3.08;;;;;;;3.04;100.00;98353.16;15270259;19;20089;-57
2022/11/25 04:44:41;;;;;;;12.90;3.00;;;;;;;3.01;100.00;98351.53;15263584;19;20027;-60
2022/11/25 04:50:28;;;;;;;11.77;3.00;;;;;;;2.94;100.00;98347.66;15270302;19;20022;-63
2022/11/25 04:55:59;;;;;;;10.93;2.92;;;;;;;2.89;100.00;98341.81;15268511;19;20030;-61
2022/11/25 05:01:27;;;;;;;10.50;3.45;;;;;;;2.83;100.00;98331.66;15266211;19;20011;-62
2022/11/25 05:07:06;;;;;;;10.75;3.75;;;;;;;2.84;100.00;98338.66;15265082;19;20356;-62
2022/11/25 05:12:43;;;;;;;12.45;3.72;;;;;;;2.81;100.00;98349.53;15266817;19;20014;-60
2022/11/25 05:18:07;;;;;;;15.95;4.18;;;;;;;2.77;100.00;98348.91;15261403;19;20723;-61
2022/11/25 05:23:31;;;;;;;13.25;4.07;;;;;;;2.71;100.00;98358.19;15269390;19;20022;-62
2022/11/25 05:28:59;;;;;;;12.98;3.70;;;;;;;2.69;100.00;98360.13;15256163;19;20017;-63
2022/11/25 05:34:25;;;;;;;12.57;3.83;;;;;;;2.66;100.00;98357.66;15267043;19;20031;-62
2022/11/25 05:39:51;;;;;;;12.05;3.92;;;;;;;2.66;100.00;98368.31;15269217;19;20019;-62
2022/11/25 05:45:20;;;;;;;12.38;4.15;;;;;;;2.64;100.00;98370.25;15271113;19;20019;-62
2022/11/25 05:50:44;;;;;;;12.95;4.22;;;;;;;2.62;100.00;98373.00;15268696;19;20045;-63
2022/11/25 05:56:12;;;;;;;18.45;4.82;;;;;;;2.64;100.00;98374.72;15271259;19;20471;-62
2022/11/25 06:02:06;;;;;;;16.65;4.75;;;;;;;2.67;100.00;98372.66;15267154;19;20010;-61
2022/11/25 06:07:31;;;;;;;13.77;4.30;;;;;;;2.67;100.00;98385.13;15266400;19;20011;-62
2022/11/25 06:12:55;;;;;;;12.75;4.40;;;;;;;2.69;100.00;98378.75;15266908;19;20043;-61
2022/11/25 06:18:25;;;;;;;13.15;4.10;;;;;;;2.74;100.00;98381.91;15261179;19;20535;-62
2022/11/25 06:23:51;;;;;;;11.15;3.53;;;;;;;2.76;100.00;98385.28;15270880;19;20078;-63
2022/11/25 06:29:17;;;;;;;11.30;3.90;;;;;;;2.74;100.00;98394.34;15283017;19;20110;-62
2022/11/25 06:34:44;;;;;;;12.07;4.20;;;;;;;2.73;100.00;98390.88;15279178;19;20015;-61
2022/11/25 06:40:36;;;;;;;12.13;4.50;;;;;;;2.73;100.00;98406.81;15278556;19;20468;-60
2022/11/25 06:46:05;;;;;;;11.60;4.30;;;;;;;2.74;100.00;98413.84;15283015;19;20085;-61
2022/11/25 06:51:40;;;;;;;10.27;4.18;;;;;;;2.72;100.00;98414.91;15274870;19;20029;-63
2022/11/25 06:57:04;;;;;;;13.15;5.10;;;;;;;2.71;100.00;98416.72;15278931;19;20015;-60
2022/11/25 07:02:29;;;;;;;13.70;4.75;;;;;;;2.75;100.00;98426.19;15276290;19;20041;-62
2022/11/25 07:08:05;;;;;;;11.88;4.53;;;;;;;2.81;100.00;98430.22;15273626;19;20018;-62
2022/11/25 07:13:31;;;;;;;10.55;4.55;;;;;;;2.83;100.00;98427.44;15276586;19;20333;-60
2022/11/25 07:18:55;;;;;;;11.20;4.38;;;;;;;2.85;100.00;98414.88;15273445;19;20539;-62
2022/11/25 07:24:25;;;;;;;8.50;3.83;;;;;;;2.91;100.00;98420.59;15270781;19;20018;-63
2022/11/25 07:29:50;;;;;;;12.13;4.07;;;;;;;2.94;100.00;98414.19;15276878;19;20522;-63
2022/11/25 07:35:35;;;;;;;8.52;3.40;;;;;;;3.04;100.00;98425.00;15277905;19;20011;-62
2022/11/25 07:41:09;;;;;;;8.07;3.33;;;;;;;3.06;100.00;98426.59;15275643;19;20360;-63
2022/11/25 07:46:36;;;;;;;8.05;2.83;;;;;;;3.20;100.00;98430.88;15271420;19;20018;-63
2022/11/25 07:52:01;;;;;;;7.70;3.10;;;;;;;3.26;100.00;98432.22;15273963;19;20007;-62
2022/11/25 07:57:29;;;;;;;5.55;2.72;;;;;;;3.38;100.00;98420.66;15268859;19;20093;-62
2022/11/25 08:02:54;;;;;;;5.97;2.50;;;;;;;3.49;100.00;98422.53;15272581;19;20283;-59
2022/11/25 08:08:18;;;;;;;7.35;2.65;;;;;;;3.58;100.00;98423.66;15276002;19;20015;-62
2022/11/25 08:13:46;;;;;;;7.07;2.40;;;;;;;3.70;100.00;98417.34;15278225;19;20038;-63
2022/11/25 08:19:14;;;;;;;7.13;2.20;;;;;;;3.80;100.00;98416.66;15279902;19;20014;-63
2022/11/25 08:24:40;;;;;;;5.35;2.17;;;;;;;3.86;100.00;98421.50;15274025;19;20017;-61
2022/11/25 08:30:08;;;;;;;5.93;2.13;;;;;;;3.96;100.00;98422.50;15281853;19;20022;-62
2022/11/25 08:35:36;;;;;;;5.25;2.03;;;;;;;4.08;100.00;98417.16;15272725;19;20015;-62
2022/11/25 08:41:02;;;;;;;3.65;1.80;;;;;;;4.19;100.00;98416.34;15270250;19;20467;-62
2022/11/25 08:46:32;;;;;;;6.82;1.90;;;;;;;4.31;100.00;98418.03;15274888;19;20010;-63
2022/11/25 08:51:57;;;;;;;6.13;1.70;;;;;;;4.40;100.00;98419.97;15273543;19;20685;-64
2022/11/25 08:57:23;;;;;;;5.63;1.65;;;;;;;4.53;100.00;98411.81;15275667;19;20095;-62
2022/11/25 09:02:51;;;;;;;4.70;1.70;;;;;;;4.68;100.00;98406.22;15273110;19;20017;-62
2022/11/25 09:08:16;;;;;;;5.85;1.60;;;;;;;4.81;100.00;98409.59;15279507;19;20686;-61
2022/11/25 09:13:42;;;;;;;4.72;1.70;;;;;;;4.96;100.00;98415.50;15277080;19;20074;-61
2022/11/25 09:19:10;;;;;;;4.25;1.70;;;;;;;5.11;100.00;98413.41;15278122;19;20018;-61
2022/11/25 09:24:35;;;;;;;4.40;1.60;;;;;;;5.31;100.00;98413.56;15276841;19;20345;-61
2022/11/25 09:29:59;;;;;;;4.45;1.63;;;;;;;5.44;100.00;98402.69;15279792;19;20021;-62
2022/11/25 09:35:28;;;;;;;4.45;1.60;;;;;;;5.61;100.00;98401.25;15269431;19;20036;-63
2022/11/25 09:40:57;;;;;;;4.00;1.40;;;;;;;5.74;100.00;98385.88;15278951;19;20083;-62
2022/11/25 09:46:45;;;;;;;3.72;1.40;;;;;;;5.86;100.00;98397.34;15274159;19;20062;-62
2022/11/25 09:52:23;;;;;;;5.30;1.63;;;;;;;6.02;100.00;98391.56;15270897;19;20035;-62
2022/11/25 09:58:03;;;;;;;4.28;1.42;;;;;;;6.15;100.00;98402.88;15283246;19;20483;-61
2022/11/25 10:03:35;;;;;;;6.35;1.58;;;;;;;6.23;100.00;98398.69;15284067;19;20021;-60
2022/11/25 10:09:06;;;;;;;3.97;1.38;;;;;;;6.29;100.00;98404.34;15287129;19;20808;-63
2022/11/25 10:14:37;;;;;;;2.90;1.20;;;;;;;6.37;100.00;98398.34;15287346;19;20074;-63
2022/11/25 10:20:10;;;;;;;4.13;1.33;;;;;;;6.45;100.00;98393.13;15288422;19;20045;-62
2022/11/25 10:25:41;;;;;;;4.80;1.40;;;;;;;6.57;100.00;98391.22;15285351;19;20074;-63
2022/11/25 10:31:12;;;;;;;3.50;1.20;;;;;;;6.64;100.00;98375.47;15291906;19;20070;-60
2022/11/25 10:36:42;;;;;;;3.30;1.10;;;;;;;6.76;100.00;98378.84;15285516;19;20088;-62
2022/11/25 10:42:13;;;;;;;3.10;1.33;;;;;;;6.86;100.00;98379.72;15280279;19;20357;-62
2022/11/25 10:47:46;;;;;;;4.75;1.40;;;;;;;6.98;100.00;98360.84;15291261;19;20084;-62
2022/11/25 10:53:21;;;;;;;3.83;1.52;;;;;;;7.11;100.00;98350.69;15282357;19;20086;-60
2022/11/25 10:58:48;;;;;;;3.85;1.40;;;;;;;7.26;100.00;98353.78;15291831;19;20015;-60
2022/11/25 11:04:20;;;;;;;3.20;1.20;;;;;;;7.36;100.00;98351.94;15287804;19;20018;-59
2022/11/25 11:09:45;;;;;;;4.17;1.37;;;;;;;7.49;100.00;98350.78;15284405;19;20029;-61
2022/11/25 11:15:29;;;;;;;4.45;1.58;;;;;;;7.60;100.00;98347.13;15283311;19;20011;-61
2022/11/25 11:20:56;;;;;;;3.20;1.20;;;;;;;7.68;100.00;98337.38;15289140;19;20010;-60
2022/11/25 11:26:31;;;;;;;3.05;1.17;;;;;;;7.72;100.00;98338.75;15283330;19;20092;-61
2022/11/25 11:32:01;;;;;;;3.70;1.30;;;;;;;7.77;100.00;98341.00;15286131;19;20016;-61
2022/11/25 11:37:42;;;;;;;2.30;1.20;;;;;;;7.84;100.00;98355.53;15284346;19;20083;-61
2022/11/25 11:43:37;;;;;;;4.33;1.40;;;;;;;7.93;100.00;98351.13;15282573;19;20015;-60
2022/11/25 11:49:20;;;;;;;2.65;1.10;;;;;;;8.06;100.00;98333.84;15291021;19;20019;-62
2022/11/25 11:54:53;;;;;;;2.35;1.10;;;;;;;8.13;100.00;98330.41;15282953;19;20011;-62
2022/11/25 12:00:27;;;;;;;3.87;1.20;;;;;;;8.21;100.00;98335.06;15285130;19;20643;-58
2022/11/25 12:05:57;;;;;;;4.05;1.70;;;;;;;8.31;100.00;98332.34;15282864;19;20010;-63
2022/11/25 12:11:29;;;;;;;3.43;1.43;;;;;;;8.41;100.00;98332.28;15323856;19;20634;-61
2022/11/25 12:16:59;;;;;;;3.15;1.25;;;;;;;8.43;100.00;98336.50;15280567;19;20475;-62
2022/11/25 12:22:34;;;;;;;4.13;1.63;;;;;;;8.41;100.00;98345.72;15274798;19;20031;-63
2022/11/25 12:28:03;;;;;;;4.28;1.50;;;;;;;8.42;100.00;98347.38;15276672;19;20464;-62
2022/11/25 12:33:35;;;;;;;4.38;1.38;;;;;;;8.41;100.00;98349.22;15275038;19;20018;-62
2022/11/25 12:39:07;;;;;;;4.80;1.30;;;;;;;8.36;100.00;98345.31;15281619;19;20113;-61
2022/11/25 12:44:39;;;;;;;4.20;1.33;;;;;;;8.37;100.00;98349.69;15274571;19;20025;-61
2022/11/25 12:50:03;;;;;;;2.77;1.30;;;;;;;8.37;100.00;98352.38;15280382;19;20020;-60
2022/11/25 12:55:33;;;;;;;2.50;1.05;;;;;;;8.42;100.00;98366.16;15281183;19;20167;-62
2022/11/25 13:01:30;;;;;;;2.92;1.08;;;;;;;8.35;100.00;98368.59;15278315;19;20015;-60
2022/11/25 13:07:13;;;;;;;2.25;1.20;;;;;;;8.35;100.00;98375.81;15275467;19;20090;-62
2022/11/25 13:12:51;;;;;;;;;;;;;;;8.24;100.00;98369.66;15272594;19;20089;-60
2022/11/25 13:18:20;;;;;;;4.35;1.27;;;;;;;8.24;100.00;98380.38;15275154;19;19922;-62
2022/11/25 13:23:55;;;;;;;4.30;1.50;;;;;;;8.21;100.00;98382.53;15273062;19;20029;-62
2022/11/25 13:30:04;;;;;;;4.68;1.20;;;;;;;8.13;100.00;98383.25;15278317;19;20018;-62
2022/11/25 13:35:55;;;;;;;5.72;1.73;;;;;;;8.11;100.00;98402.19;15269610;19;20054;-62
2022/11/25 13:41:38;;;;;;;2.95;1.60;;;;;;;8.05;100.00;98408.13;15277327;19;20014;-61
2022/11/25 13:47:05;;;;;;;2.75;1.35;;;;;;;8.03;100.00;98404.75;15273217;19;20074;-61
2022/11/25 13:52:48;;;;;;;4.80;1.40;;;;;;;7.96;100.00;98409.84;15272496;19;20021;-62
2022/11/25 13:58:34;;;;;;;3.95;1.58;;;;;;;7.92;100.00;98410.28;15274293;19;20018;-61
2022/11/25 14:04:01;;;;;;;2.38;1.30;;;;;;;7.89;100.00;98422.16;15272454;19;20098;-62
2022/11/25 14:09:46;;;;;;;3.25;1.55;;;;;;;7.86;100.00;98420.63;15276044;19;20018;-59
2022/11/25 14:15:44;;;;;;;2.67;1.33;;;;;;;7.81;100.00;98432.75;15273410;19;20022;-60
2022/11/25 14:21:15;;;;;;;2.55;1.40;;;;;;;7.73;100.00;98441.53;15274554;19;20536;-63
2022/11/25 14:26:44;;;;;;;3.03;1.50;;;;;;;7.62;100.00;98466.63;15272031;19;20082;-63
2022/11/25 14:32:15;;;;;;;5.18;2.15;;;;;;;7.46;100.00;98482.44;15269756;19;20086;-61
2022/11/25 14:37:45;;;;;;;4.57;1.63;;;;;;;7.21;100.00;98492.72;15272007;19;20381;-62
2022/11/25 14:43:20;;;;;;;4.60;1.70;;;;;;;7.09;100.00;98498.19;14762138;19;10000260;-61
2022/11/25 14:48:45;;;;;;;4.80;1.75;;;;;;;6.95;100.00;98522.66;15287041;19;20010;-58
2022/11/25 14:54:11;;;;;;;3.85;1.60;;;;;;;6.92;100.00;98533.66;15279988;19;20007;-61
2022/11/25 14:59:40;;;;;;;6.10;2.00;;;;;;;6.90;100.00;98531.13;15286173;19;20010;-61
2022/11/25 15:05:25;;;;;;;6.18;2.05;;;;;;;6.87;100.00;98528.69;15276587;19;20025;-61
2022/11/25 15:10:55;;;;;;;7.25;1.90;;;;;;;6.82;100.00;98535.44;15278190;19;20021;-61
2022/11/25 15:16:26;;;;;;;4.25;1.98;;;;;;;6.82;100.00;98551.50;15282253;19;20011;-61
2022/11/25 15:22:00;;;;;;;6.70;1.90;;;;;;;6.72;100.00;98555.00;15281212;19;20482;-61
2022/11/25 15:27:41;;;;;;;4.45;2.13;;;;;;;6.67;100.00;98567.91;15279666;19;20025;-61
2022/11/25 15:33:12;;;;;;;5.45;2.00;;;;;;;6.62;100.00;98564.81;15279085;19;20018;-62
2022/11/25 15:38:46;;;;;;;3.60;1.90;;;;;;;6.58;100.00;98576.75;15286325;19;20549;-62
2022/11/25 15:44:21;;;;;;;4.07;2.00;;;;;;;6.56;100.00;98584.94;15277620;19;20023;-61
2022/11/25 15:49:48;;;;;;;4.68;1.70;;;;;;;6.53;100.00;98582.50;15280556;19;20022;-62
2022/11/25 15:55:21;;;;;;;6.05;1.80;;;;;;;6.52;100.00;98590.69;15277372;19;20243;-62
2022/11/25 16:00:47;;;;;;;3.40;1.70;;;;;;;6.52;100.00;98593.34;15281767;19;20014;-62
2022/11/25 16:06:25;;;;;;;3.60;2.00;;;;;;;6.50;100.00;98590.78;15275881;19;20025;-63
2022/11/25 16:11:57;;;;;;;6.40;2.60;;;;;;;6.51;100.00;98594.31;15272115;19;20519;-63
2022/11/25 16:17:22;;;;;;;5.43;2.63;;;;;;;6.52;100.00;98601.38;15279220;19;20042;-63
2022/11/25 16:22:49;;;;;;;4.68;2.53;;;;;;;6.50;100.00;98606.00;15277345;19;20011;-63
2022/11/25 16:28:20;;;;;;;4.60;2.83;;;;;;;6.52;100.00;98614.75;15277491;19;20021;-63
2022/11/25 16:33:45;;;;;;;5.82;3.38;;;;;;;6.52;100.00;98622.78;15272302;19;20025;-61
2022/11/25 16:39:12;;;;;;;5.32;3.15;;;;;;;6.53;100.00;98633.38;15274252;19;20016;-62
2022/11/25 16:44:39;;;;;;;6.68;3.33;;;;;;;6.53;100.00;98644.06;15271218;19;20018;-63
2022/11/25 16:50:04;;;;;;;5.53;2.65;;;;;;;6.54;100.00;98642.22;15274298;19;20041;-63
2022/11/25 16:55:35;;;;;;;5.43;2.58;;;;;;;6.52;100.00;98642.38;15275468;19;20010;-62
2022/11/25 17:01:00;;;;;;;4.57;1.80;;;;;;;6.52;100.00;98644.22;15274678;19;20089;-63
2022/11/25 17:06:27;;;;;;;2.92;1.80;;;;;;;6.48;100.00;98639.09;15274019;19;20081;-63
2022/11/25 17:12:01;;;;;;;3.67;1.80;;;;;;;6.42;100.00;98642.28;15271196;19;20037;-62
2022/11/25 17:17:27;;;;;;;4.10;1.83;;;;;;;6.37;100.00;98641.84;15275071;19;20018;-63
2022/11/25 17:22:52;;;;;;;3.05;1.85;;;;;;;6.30;100.00;98649.53;15271554;19;20025;-63
2022/11/25 17:28:23;;;;;;;3.53;2.13;;;;;;;6.20;100.00;98667.34;15272642;19;20106;-62
2022/11/25 17:33:47;;;;;;;5.40;2.43;;;;;;;6.10;100.00;98667.25;15268917;19;20014;-63
2022/11/25 17:39:14;;;;;;;4.72;3.20;;;;;;;6.05;100.00;98669.47;15273522;19;20082;-63
2022/11/25 17:44:41;;;;;;;6.63;3.60;;;;;;;6.02;100.00;98691.09;15268257;19;20078;-63
2022/11/25 17:50:22;;;;;;;7.65;4.30;;;;;;;5.95;100.00;98701.41;15274058;19;20070;-64
2022/11/25 17:55:50;;;;;;;5.93;3.92;;;;;;;5.95;100.00;98717.47;15275377;19;20014;-62
2022/11/25 18:01:17;;;;;;;5.82;3.55;;;;;;;5.95;100.00;98711.25;15274236;19;20034;-62
2022/11/25 18:06:42;;;;;;;5.05;3.50;;;;;;;5.94;100.00;98721.09;15274724;19;20032;-62
2022/11/25 18:12:22;;;;;;;10.13;6.78;;;;;;;5.91;100.00;98733.88;15272462;19;20359;-62
2022/11/25 18:17:50;;;;;;;8.93;5.65;;;;;;;5.93;100.00;98743.47;15251143;19;20014;-62
2022/11/25 18:23:18;;;;;;;7.40;5.30;;;;;;;5.94;100.00;98758.56;15280132;19;20017;-63
2022/11/25 18:28:43;;;;;;;6.93;4.80;;;;;;;5.95;100.00;98762.94;15284283;19;20018;-63
2022/11/25 18:34:10;;;;;;;6.65;4.97;;;;;;;5.95;100.00;98767.41;15278911;19;20042;-60
2022/11/25 18:39:35;;;;;;;6.50;4.25;;;;;;;5.96;100.00;98777.13;15283975;19;20344;-63
2022/11/25 18:45:00;;;;;;;6.85;4.50;;;;;;;5.95;100.00;98781.66;15279191;19;20078;-63
2022/11/25 18:50:29;;;;;;;5.43;3.75;;;;;;;5.93;100.00;98802.31;15285706;19;20006;-65
2022/11/25 18:55:55;;;;;;;3.72;2.63;;;;;;;5.96;100.00;98804.75;15281865;19;20010;-63
2022/11/25 19:01:21;;;;;;;5.30;3.05;;;;;;;5.97;100.00;98801.09;15282009;19;20018;-62
2022/11/25 19:06:48;;;;;;;4.93;2.58;;;;;;;6.00;100.00;98811.56;15285825;19;20026;-61
2022/11/25 19:12:19;;;;;;;3.25;2.20;;;;;;;6.05;100.00;98808.53;15277691;19;20022;-59
2022/11/25 19:17:43;;;;;;;4.40;2.30;;;;;;;6.00;100.00;98813.41;15282810;19;20021;-62
2022/11/25 19:23:21;;;;;;;4.32;2.28;;;;;;;5.95;100.00;98818.22;15280934;19;20018;-61
2022/11/25 19:28:45;;;;;;;4.25;2.40;;;;;;;5.89;100.00;98822.22;15282123;19;20010;-65
2022/11/25 19:34:14;;;;;;;6.70;2.33;;;;;;;5.77;100.00;98817.84;15279832;19;20037;-63
2022/11/25 19:39:44;;;;;;;4.28;2.17;;;;;;;5.75;100.00;98831.34;15282652;19;20018;-64
2022/11/25 19:45:11;;;;;;;3.30;2.03;;;;;;;5.69;100.00;98847.88;15275614;19;20025;-63
2022/11/25 19:50:37;;;;;;;5.22;2.50;;;;;;;5.63;100.00;98853.69;15280566;19;20027;-62
2022/11/25 19:56:05;;;;;;;4.47;2.45;;;;;;;5.59;100.00;98868.25;15276541;19;20007;-63
2022/11/25 20:01:35;;;;;;;6.55;2.67;;;;;;;5.55;100.00;98881.00;15278955;19;20050;-62
2022/11/25 20:07:00;;;;;;;6.63;2.58;;;;;;;5.57;100.00;98889.78;15273223;19;20516;-63
2022/11/25 20:12:35;;;;;;;5.40;2.45;;;;;;;5.56;100.00;98890.72;15269612;19;20527;-59
2022/11/25 20:18:01;;;;;;;4.70;2.50;;;;;;;5.55;100.00;98905.06;15275357;19;20018;-63
2022/11/25 20:23:36;;;;;;;3.75;2.30;;;;;;;5.47;100.00;98911.00;15274996;19;20019;-64
2022/11/25 20:29:12;;;;;;;4.07;2.40;;;;;;;5.43;100.00;98919.38;15279474;19;20048;-64
2022/11/25 20:34:38;;;;;;;4.00;2.28;;;;;;;5.37;100.00;98928.69;15275552;19;20011;-63
2022/11/25 20:40:05;;;;;;;6.78;2.33;;;;;;;5.50;100.00;98942.84;15275080;19;20074;-62
2022/11/25 20:45:34;;;;;;;5.53;2.67;;;;;;;5.65;100.00;98939.97;15271351;19;20102;-62
2022/11/25 20:51:01;;;;;;;4.90;2.20;;;;;;;5.72;100.00;98943.88;15269799;19;20022;-62
2022/11/25 20:56:29;;;;;;;6.85;2.40;;;;;;;5.80;100.00;98953.97;15268342;19;20026;-62
2022/11/25 21:01:56;;;;;;;8.40;2.38;;;;;;;5.79;100.00;98958.50;15270217;19;20301;-62
2022/11/25 21:07:23;;;;;;;5.90;2.58;;;;;;;5.81;100.00;98974.41;15267824;19;20025;-61
2022/11/25 21:12:55;;;;;;;5.88;2.30;;;;;;;5.89;100.00;98969.31;15267233;19;20428;-63
2022/11/25 21:18:22;;;;;;;6.97;2.38;;;;;;;5.88;100.00;98980.13;15269952;19;20014;-60
2022/11/25 21:23:47;;;;;;;4.97;2.60;;;;;;;5.89;100.00;98984.53;15270899;19;20022;-60
2022/11/25 21:29:16;;;;;;;8.63;2.60;;;;;;;5.82;100.00;98986.81;15274081;19;20015;-60
2022/11/25 21:34:43;;;;;;;4.90;2.60;;;;;;;5.83;100.00;98992.03;15272177;19;20014;-61
2022/11/25 21:40:17;;;;;;;6.18;2.85;;;;;;;5.79;100.00;98995.94;15274795;19;20006;-61
2022/11/25 21:45:41;;;;;;;5.95;2.67;;;;;;;5.71;100.00;98998.31;15271914;19;20020;-59
2022/11/25 21:51:11;;;;;;;5.90;2.70;;;;;;;5.62;100.00;99010.56;15271835;19;20045;-61
2022/11/25 21:56:39;;;;;;;5.82;2.90;;;;;;;5.54;100.00;99020.97;15301432;19;20044;-61
2022/11/25 22:02:04;;;;;;;7.55;3.03;;;;;;;5.50;100.00;99027.53;15300549;19;20025;-61
2022/11/25 22:07:31;;;;;;;7.45;3.38;;;;;;;5.45;100.00;99041.22;15300644;19;20037;-59
2022/11/25 22:13:02;;;;;;;5.53;3.17;;;;;;;5.38;100.00;99050.66;15298015;19;20557;-60
2022/11/25 22:18:29;;;;;;;;;;;;;;;5.33;100.00;99052.81;15300130;19;20018;-59
2022/11/25 22:23:57;;;;;;;8.73;3.33;;;;;;;5.39;100.00;99065.72;15298572;19;20272;-59
2022/11/25 22:29:24;;;;;;;6.75;3.42;;;;;;;5.41;100.00;99071.81;15301226;19;20024;-63
2022/11/25 22:34:50;;;;;;;6.80;3.40;;;;;;;5.40;100.00;99072.78;15295568;19;20019;-59
2022/11/25 22:40:24;;;;;;;7.32;2.95;;;;;;;5.37;100.00;99083.66;15300124;19;20018;-60
2022/11/25 22:45:49;;;;;;;6.75;3.17;;;;;;;5.38;100.00;99077.38;15294857;19;20365;-62
2022/11/25 22:51:14;;;;;;;6.40;3.03;;;;;;;5.36;100.00;99084.63;15297968;19;20041;-61
2022/11/25 22:56:41;;;;;;;4.65;2.97;;;;;;;5.35;100.00;99097.16;15296775;19;20552;-58
2022/11/25 23:02:06;;;;;;;8.50;3.17;;;;;;;5.35;100.00;99105.16;15295665;19;20743;-59
2022/11/25 23:07:31;;;;;;;6.43;3.00;;;;;;;5.38;100.00;99106.75;15281906;19;20018;-60
2022/11/25 23:13:05;;;;;;;7.22;3.40;;;;;;;5.37;100.00;99100.56;15281632;19;20023;-59
2022/11/25 23:18:34;;;;;;;8.73;3.35;;;;;;;5.39;100.00;99114.69;15286237;19;20015;-60
2022/11/25 23:23:59;;;;;;;6.03;3.35;;;;;;;5.40;100.00;99119.06;15281655;19;20019;-62
2022/11/25 23:29:26;;;;;;;8.07;3.45;;;;;;;5.41;100.00;99125.25;15284705;19;20021;-62
2022/11/25 23:34:52;;;;;;;9.43;3.78;;;;;;;5.43;100.00;99123.31;15279909;19;20018;-62
2022/11/25 23:40:21;;;;;;;6.43;3.20;;;;;;;5.44;100.00;99117.03;15285128;19;20038;-62
2022/11/25 23:45:55;;;;;;;7.50;3.45;;;;;;;5.45;100.00;99134.75;15278191;19;20017;-59
2022/11/25 23:51:20;;;;;;;8.70;3.85;;;;;;;5.44;100.00;99133.06;15282628;19;20054;-61
2022/11/25 23:56:45;;;;;;;9.30;4.10;;;;;;;5.46;100.00;99144.50;15282807;19;20007;-61
